Time;durP1;ratioP1;P1;durP2;ratioP2;P2;SDS_P1;SDS_P2;PMS_P1;PMS_P2;Temp;Humidity;BMP_temperature;BMP_pressure;BME280_temperature;BME280_humidity;BME280_pressure;Samples;Min_cycle;Max_cycle;Signal;HPM_P1;HPM_P2
2023/04/20 00:00:17;;;;;;;;;38.33;34.00;;;;;7.67;100.00;99437.66;6281407;20;2858627;-59
2023/04/20 00:02:46;;;;;;;;;35.00;33.67;;;;;7.81;100.00;99444.06;6319480;20;3580472;-59
2023/04/20 00:05:15;;;;;;;;;37.50;34.00;;;;;7.89;100.00;99447.16;6282758;20;2850275;-59
2023/04/20 00:07:44;;;;;;;;;38.67;32.67;;;;;7.94;100.00;99439.75;6286329;20;3622203;-60
2023/04/20 00:10:14;;;;;;;;;46.33;36.00;;;;;7.85;100.00;99440.28;6314462;20;2877428;-59
2023/04/20 00:12:43;;;;;;;;;37.00;34.00;;;;;8.00;100.00;99439.41;6315843;20;3595116;-59
2023/04/20 00:15:13;;;;;;;;;38.33;32.33;;;;;8.13;100.00;99442.28;6280740;20;2858728;-59
2023/04/20 00:17:43;;;;;;;;;46.33;36.67;;;;;7.99;100.00;99439.53;6315956;20;3605598;-59
2023/04/20 00:20:12;;;;;;;;;37.00;34.00;;;;;7.61;100.00;99437.09;6282991;20;2846132;-59
2023/04/20 00:22:41;;;;;;;;;37.33;30.00;;;;;7.75;100.00;99439.06;6286348;20;3610041;-59
2023/04/20 00:25:13;;;;;;;;;42.25;37.13;;;;;7.61;100.00;99435.31;6339184;20;3615886;-59
2023/04/20 00:27:44;;;;;;;;;43.67;37.33;;;;;7.84;100.00;99435.88;6313971;20;2875284;-59
2023/04/20 00:30:13;;;;;;;;;42.00;38.00;;;;;7.72;100.00;99433.88;6316071;20;2864994;-59
2023/04/20 00:32:42;;;;;;;;;42.50;34.00;;;;;7.58;100.00;99438.16;6283079;20;2861766;-59
2023/04/20 00:35:12;;;;;;;;;45.33;37.00;;;;;7.34;100.00;99428.75;6281668;20;3620044;-59
2023/04/20 00:37:40;;;;;;;;;43.00;36.00;;;;;7.57;100.00;99425.72;6317945;20;2746112;-59
2023/04/20 00:40:09;;;;;;;;;44.00;37.33;;;;;7.46;100.00;99428.09;6287795;20;3591919;-59
2023/04/20 00:42:40;;;;;;;;;42.50;36.50;;;;;7.56;100.00;99434.69;6280022;20;2855643;-59
2023/04/20 00:45:09;;;;;;;;;36.50;34.50;;;;;7.58;100.00;99438.16;6279881;20;2847163;-59
2023/04/20 00:47:38;;;;;;;;;38.50;36.00;;;;;7.73;100.00;99432.91;6282024;20;2851320;-59
2023/04/20 00:50:09;;;;;;;;;45.00;37.00;;;;;7.66;100.00;99440.38;6282563;20;2875465;-60
2023/04/20 00:52:40;;;;;;;;;42.50;37.00;;;;;7.64;100.00;99432.47;6310327;20;2834786;-59
2023/04/20 00:55:09;;;;;;;;;38.50;35.50;;;;;7.54;100.00;99433.06;6281967;20;2854467;-59
2023/04/20 00:57:37;;;;;;;;;36.50;34.00;;;;;7.47;100.00;99440.50;6277596;20;2493009;-60
2023/04/20 01:00:08;;;;;;;;;48.67;38.33;;;;;7.24;100.00;99429.25;6280774;20;2861985;-59
2023/04/20 01:02:37;;;;;;;;;42.33;37.00;;;;;7.21;100.00;99434.75;6317240;20;3612748;-59
2023/04/20 01:05:07;;;;;;;;;39.50;35.50;;;;;7.20;100.00;99433.00;6281795;20;2852360;-60
2023/04/20 01:07:36;;;;;;;;;46.00;37.00;;;;;7.40;100.00;99429.31;6285635;20;2877430;-60
2023/04/20 01:10:08;;;;;;;;;41.33;36.00;;;;;7.37;100.00;99428.56;6313045;20;2852359;-59
2023/04/20 01:12:38;;;;;;;;;42.67;36.67;;;;;7.19;100.00;99431.28;6311460;20;2863799;-60
2023/04/20 01:15:08;;;;;;;;;37.00;35.67;;;;;7.18;100.00;99434.88;6315984;20;3585674;-60
2023/04/20 01:17:38;;;;;;;;;38.00;33.50;;;;;7.14;100.00;99428.00;6278708;20;2856498;-59
2023/04/20 01:20:13;;;;;;;;;40.00;36.00;;;;;7.14;100.00;99428.00;6279132;20;2871156;-58
2023/04/20 01:22:53;;;;;;;;;39.00;31.67;;;;;6.96;100.00;99426.25;6279897;20;2869069;-60
2023/04/20 01:25:22;;;;;;;;;32.67;30.67;;;;;6.99;100.00;99428.78;6316621;20;3595027;-59
2023/04/20 01:27:51;;;;;;;;;37.00;33.33;;;;;7.07;100.00;99426.56;6280542;20;2852407;-60
2023/04/20 01:30:20;;;;;;;;;34.67;31.33;;;;;7.03;100.00;99422.34;6313566;20;3580568;-53
2023/04/20 01:32:50;;;;;;;;;39.00;35.00;;;;;7.22;100.00;99431.13;6279474;20;2857643;-59
2023/04/20 01:35:19;;;;;;;;;40.00;33.50;;;;;7.19;100.00;99420.59;6313809;20;2849275;-59
2023/04/20 01:37:48;;;;;;;;;45.00;35.00;;;;;7.01;100.00;99422.41;6279853;20;3611718;-59
2023/04/20 01:40:17;;;;;;;;;36.33;31.33;;;;;6.88;100.00;99420.47;6313891;20;3595131;-59
2023/04/20 01:42:47;;;;;;;;;36.00;30.33;;;;;6.87;100.00;99421.38;6279941;20;2865972;-59
2023/04/20 01:45:16;;;;;;;;;37.67;33.00;;;;;6.87;100.00;99413.38;6312846;20;2862939;-59
2023/04/20 01:47:45;;;;;;;;;41.33;36.67;;;;;6.71;100.00;99418.63;6312242;20;3604460;-59
2023/04/20 01:50:14;;;;;;;;;39.00;34.00;;;;;6.83;100.00;99412.69;6278571;20;2858817;-59
2023/04/20 01:52:44;;;;;;;;;39.33;31.67;;;;;6.68;100.00;99408.97;6310914;20;3617018;-59
2023/04/20 01:55:13;;;;;;;;;44.33;35.00;;;;;6.60;100.00;99413.81;6311857;20;3581535;-59
2023/04/20 01:57:43;;;;;;;;;43.33;35.67;;;;;6.82;100.00;99416.28;6281790;20;2869178;-59
2023/04/20 02:00:14;;;;;;;;;45.00;34.33;;;;;6.66;100.00;99416.22;6310510;20;2873182;-59
2023/04/20 02:02:43;;;;;;;;;35.00;33.33;;;;;6.60;100.00;99416.50;6312815;20;3589884;-59
2023/04/20 02:05:13;;;;;;;;;40.00;36.00;;;;;6.66;100.00;99416.22;6312752;20;2871840;-59
2023/04/20 02:07:42;;;;;;;;;35.00;34.00;;;;;6.93;100.00;99413.94;6314383;20;2844141;-58
2023/04/20 02:10:11;;;;;;;;;42.00;33.67;;;;;7.01;100.00;99416.22;6279151;20;2856524;-59
2023/04/20 02:12:40;;;;;;;;;43.67;36.00;;;;;6.79;100.00;99419.09;6312743;20;3594007;-59
2023/04/20 02:15:09;;;;;;;;;42.00;36.50;;;;;6.93;100.00;99419.28;6311460;20;2856531;-59
2023/04/20 02:17:40;;;;;;;;;44.00;36.00;;;;;6.46;100.00;99424.31;6279132;20;2867014;-59
2023/04/20 02:20:11;;;;;;;;;39.33;35.67;;;;;6.02;100.00;99419.31;6311280;20;3625326;-59
2023/04/20 02:22:40;;;;;;;;;34.00;31.00;;;;;6.02;100.00;99420.16;6280519;20;2864937;-53
2023/04/20 02:25:10;;;;;;;;;38.00;33.67;;;;;5.97;100.00;99410.66;6278150;20;2863919;-52
2023/04/20 02:27:39;;;;;;;;;35.33;32.33;;;;;6.11;100.00;99414.41;6311569;20;3602402;-54
2023/04/20 02:30:09;;;;;;;;;28.50;28.50;;;;;5.91;100.00;99414.47;6310375;20;2847247;-54
2023/04/20 02:32:38;;;;;;;;;30.50;29.50;;;;;6.03;100.00;99410.38;6281587;20;2855524;-55
2023/04/20 02:35:08;;;;;;;;;36.67;33.33;;;;;6.01;100.00;99413.13;6279862;20;2862885;-51
2023/04/20 02:37:38;;;;;;;;;41.00;32.00;;;;;6.04;100.00;99404.13;6310102;20;2871208;-53
2023/04/20 02:40:08;;;;;;;;;38.00;35.33;;;;;5.89;100.00;99409.19;6310716;20;3595222;-52
2023/04/20 02:42:38;;;;;;;;;38.00;34.00;;;;;5.82;100.00;99415.75;6278677;20;3609665;-53
2023/04/20 02:45:08;;;;;;;;;55.00;43.50;;;;;5.97;100.00;99408.00;6311877;20;2859621;-49
2023/04/20 02:47:37;;;;;;;;;41.50;35.50;;;;;6.12;100.00;99416.13;6281749;20;2862780;-50
2023/04/20 02:50:07;;;;;;;;;38.50;34.50;;;;;6.02;100.00;99414.84;6276051;20;2846337;-53
2023/04/20 02:52:36;;;;;;;;;39.50;34.00;;;;;6.17;100.00;99421.25;6279926;20;2840939;-52
2023/04/20 02:55:06;;;;;;;;;36.50;35.00;;;;;6.42;100.00;99412.91;6276124;20;2842130;-54
2023/04/20 02:57:36;;;;;;;;;45.00;36.00;;;;;6.35;100.00;99427.50;6277824;20;2871207;-54
2023/04/20 03:00:07;;;;;;;;;46.67;36.67;;;;;6.41;100.00;99413.00;6310914;20;3618013;-51
2023/04/20 03:02:37;;;;;;;;;36.33;33.67;;;;;6.20;100.00;99421.09;6278006;20;2849018;-52
2023/04/20 03:05:08;;;;;;;;;43.33;36.33;;;;;6.26;100.00;99418.13;6308657;20;2875483;-54
2023/04/20 03:07:36;;;;;;;;;41.67;34.67;;;;;6.02;100.00;99425.50;6313116;20;3591916;-53
2023/04/20 03:10:07;;;;;;;;;37.67;34.33;;;;;6.10;100.00;99422.47;6309684;20;2857617;-52
2023/04/20 03:12:36;;;;;;;;;41.00;34.00;;;;;6.08;100.00;99413.69;6310753;20;2859626;-52
2023/04/20 03:15:06;;;;;;;;;43.00;38.00;;;;;6.19;100.00;99422.06;6276791;20;2839066;-52
2023/04/20 03:17:36;;;;;;;;;41.00;34.00;;;;;5.88;100.00;99418.13;6277540;20;2873296;-51
2023/04/20 03:20:08;;;;;;;;;41.50;36.50;;;;;6.17;100.00;99412.41;6308812;20;2859699;-53
2023/04/20 03:22:36;;;;;;;;;39.00;36.00;;;;;6.12;100.00;99415.28;6279921;20;2858752;-52
2023/04/20 03:25:07;;;;;;;;;42.67;36.00;;;;;6.19;100.00;99411.38;6278792;20;2870196;-54
2023/04/20 03:27:37;;;;;;;;;43.67;35.00;;;;;5.91;100.00;99411.78;6309695;20;2870206;-52
2023/04/20 03:30:07;;;;;;;;;44.50;36.00;;;;;5.87;100.00;99416.41;6307941;20;2867005;-53
2023/04/20 03:32:37;;;;;;;;;33.00;32.00;;;;;5.81;100.00;99414.00;6279769;20;2862807;-52
2023/04/20 03:35:07;;;;;;;;;39.00;34.00;;;;;5.85;100.00;99414.75;6275950;20;2855578;-51
2023/04/20 03:37:37;;;;;;;;;31.00;26.00;;;;;6.03;100.00;99415.69;6279113;20;2851420;-54
2023/04/20 03:40:09;;;;;;;;;38.67;33.67;;;;;6.17;100.00;99423.91;6275390;20;2879660;-53
2023/04/20 03:42:38;;;;;;;;;39.67;34.67;;;;;6.35;100.00;99425.69;6311529;20;2854559;-53
2023/04/20 03:45:09;;;;;;;;;33.00;31.33;;;;;6.11;100.00;99424.22;6305728;20;2866990;-53
2023/04/20 03:47:39;;;;;;;;;42.67;36.00;;;;;5.96;100.00;99417.81;6309653;20;3609623;-53
2023/04/20 03:50:08;;;;;;;;;39.33;34.00;;;;;5.99;100.00;99428.31;6311234;20;3593359;-52
2023/04/20 03:52:37;;;;;;;;;42.00;34.50;;;;;5.92;100.00;99424.16;6277672;20;2857564;-54
2023/04/20 03:55:07;;;;;;;;;35.67;33.00;;;;;6.29;100.00;99435.78;6276638;20;2869156;-53
2023/04/20 03:57:38;;;;;;;;;39.67;34.33;;;;;6.31;100.00;99434.78;6308044;20;2864929;-51
2023/04/20 04:00:09;;;;;;;;;36.00;33.33;;;;;6.46;100.00;99429.66;6306566;20;2847456;-53
2023/04/20 04:02:39;;;;;;;;;37.33;33.00;;;;;6.38;100.00;99433.56;6312608;20;3617136;-53
2023/04/20 04:05:09;;;;;;;;;44.67;34.00;;;;;6.54;100.00;99438.13;6314360;20;3632567;-51
2023/04/20 04:07:38;;;;;;;;;53.00;42.00;;;;;6.38;100.00;99438.88;6313146;20;2862785;-55
2023/04/20 04:10:08;;;;;;;;;47.50;39.00;;;;;6.44;100.00;99444.84;6283326;20;2852471;-54
2023/04/20 04:12:38;;;;;;;;;59.00;45.33;;;;;6.32;100.00;99438.34;6284475;20;2877397;-52
2023/04/20 04:15:08;;;;;;;;;53.50;42.50;;;;;6.18;100.00;99446.09;6314312;20;2871109;-52
2023/04/20 04:17:38;;;;;;;;;42.33;36.67;;;;;6.42;100.00;99444.91;6281854;20;2865108;-52
2023/04/20 04:20:08;;;;;;;;;36.50;34.50;;;;;6.72;100.00;99445.25;6311760;20;2834705;-53
2023/04/20 04:22:35;;;;;;;;;37.00;34.00;;;;;6.94;100.00;99438.81;6280973;20;2509165;-49
2023/04/20 04:25:06;;;;;;;;;45.00;36.00;;;;;6.83;100.00;99439.34;6282592;20;2885799;-52
2023/04/20 04:27:38;;;;;;;;;37.50;33.00;;;;;7.12;100.00;99443.22;6311982;20;2865049;-55
2023/04/20 04:30:10;;;;;;;;;49.33;35.67;;;;;7.13;100.00;99442.25;6283005;20;3602322;-55
2023/04/20 04:32:40;;;;;;;;;45.00;34.33;;;;;7.14;100.00;99449.34;6311804;20;3625273;-51
2023/04/20 04:35:09;;;;;;;;;41.00;35.67;;;;;7.32;100.00;99444.88;6314250;20;3603491;-53
2023/04/20 04:37:39;;;;;;;;;65.67;49.67;;;;;7.68;100.00;99450.06;6281992;20;3647124;-50
2023/04/20 04:40:09;;;;;;;;;31.00;28.33;;;;;9.73;91.75;99457.94;6314205;20;3602352;-51
2023/04/20 04:42:38;;;;;;;;;26.00;26.00;;;;;11.23;84.71;99468.00;6282713;20;2848307;-53
2023/04/20 04:45:09;;;;;;;;;22.50;22.50;;;;;11.99;78.04;99468.06;6283059;20;2841931;-55
2023/04/20 04:47:39;;;;;;;;;27.00;27.00;;;;;10.80;80.07;99470.88;6282483;20;2841948;-50
2023/04/20 04:50:09;;;;;;;;;27.50;24.00;;;;;10.50;82.64;99475.44;6282455;20;2850324;-55
2023/04/20 04:52:38;;;;;;;;;26.50;22.50;;;;;10.91;82.04;99476.38;6283281;20;2839854;-51
2023/04/20 04:55:08;;;;;;;;;28.50;25.50;;;;;11.12;80.86;99482.16;6282015;20;2857652;-51
2023/04/20 04:57:37;;;;;;;;;22.00;22.00;;;;;10.91;80.91;99476.38;6282339;20;3589870;-53
2023/04/20 05:00:08;;;;;;;;;26.00;23.00;;;;;10.57;82.80;99475.91;6278896;20;2745233;-54
2023/04/20 05:02:37;;;;;;;;;25.00;22.67;;;;;10.82;81.11;99485.03;6319390;20;3594033;-55
2023/04/20 05:05:07;;;;;;;;;27.00;22.50;;;;;10.47;83.20;99477.47;6279953;20;2846196;-53
2023/04/20 05:07:38;;;;;;;;;30.00;27.33;;;;;10.20;85.04;99491.66;6280598;20;2853498;-56
2023/04/20 05:10:08;;;;;;;;;27.00;26.50;;;;;10.70;84.99;99487.56;6311956;20;2848637;-51
2023/04/20 05:12:38;;;;;;;;;29.00;25.00;;;;;11.55;81.04;99490.81;6282097;20;2850305;-55
2023/04/20 05:15:08;;;;;;;;;27.67;25.33;;;;;12.43;77.13;99498.19;6280251;20;3598182;-56
2023/04/20 05:17:38;;;;;;;;;27.00;27.00;;;;;14.96;66.48;99499.34;6280485;20;3597274;-51
2023/04/20 05:20:09;;;;;;;;;28.33;26.67;;;;;14.36;67.99;99498.78;6316294;20;3593421;-52
2023/04/20 05:22:39;;;;;;;;;35.33;31.33;;;;;13.05;73.64;99497.19;6279855;20;3599219;-52
2023/04/20 05:25:08;;;;;;;;;39.67;32.67;;;;;12.14;77.14;99498.44;6314875;20;3614834;-53
2023/04/20 05:27:40;;;;;;;;;32.67;32.00;;;;;12.55;78.28;99499.09;6281453;20;3585680;-58
2023/04/20 05:30:10;;;;;;;;;32.00;30.00;;;;;12.58;76.53;99496.19;6281503;20;2850331;-56
2023/04/20 05:32:50;;;;;;;;;30.33;24.33;;;;;14.15;72.67;99504.06;6312775;20;3609631;-55
2023/04/20 05:35:21;;;;;;;;;30.67;29.00;;;;;12.30;77.16;99500.88;6283490;20;3579534;-55
2023/04/20 05:37:51;;;;;;;;;27.67;26.67;;;;;13.70;73.14;99504.84;6279231;20;2856616;-54
2023/04/20 05:40:19;;;;;;;;;27.33;24.67;;;;;14.15;72.13;99501.34;6313955;20;3587789;-52
2023/04/20 05:42:49;;;;;;;;;26.33;26.33;;;;;15.22;66.37;99507.97;6280710;20;2858688;-52
2023/04/20 05:45:18;;;;;;;;;30.00;26.67;;;;;14.37;68.75;99514.00;6316137;20;3612766;-51
2023/04/20 05:47:57;;;;;;;;;26.00;23.67;;;;;14.33;69.23;99509.84;6285651;20;3579459;-55
2023/04/20 05:50:26;;;;;;;;;23.33;23.33;;;;;14.28;69.07;99518.31;6284343;20;3596117;-55
2023/04/20 05:52:56;;;;;;;;;25.00;23.00;;;;;13.88;72.34;99509.78;6282294;20;3600336;-54
2023/04/20 05:55:25;;;;;;;;;28.00;26.00;;;;;14.95;68.73;99519.25;6310589;20;3590935;-53
2023/04/20 05:57:54;;;;;;;;;24.33;21.33;;;;;14.60;68.98;99517.59;6280058;20;3587867;-52
2023/04/20 06:00:23;;;;;;;;;23.00;22.00;;;;;13.61;72.76;99519.03;6275176;20;2850398;-51
2023/04/20 06:02:53;;;;;;;;;22.00;21.00;;;;;12.86;76.76;99517.44;6280970;20;2834770;-53
2023/04/20 06:05:23;;;;;;;;;24.33;22.33;;;;;13.31;75.43;99516.84;6282767;20;2848258;-52
2023/04/20 06:07:52;;;;;;;;;21.67;21.67;;;;;13.81;74.39;99518.34;6313306;20;3578386;-52
2023/04/20 06:10:22;;;;;;;;;21.67;21.33;;;;;13.53;73.99;99516.06;6278815;20;2841918;-54
2023/04/20 06:12:51;;;;;;;;;27.00;24.00;;;;;14.05;73.60;99522.81;6310995;20;2842081;-54
2023/04/20 06:15:20;;;;;;;;;26.33;25.00;;;;;13.90;73.28;99514.09;6283566;20;2848675;-50
2023/04/20 06:17:49;;;;;;;;;24.00;23.33;;;;;14.33;73.20;99521.50;6314797;20;3589874;-49
2023/04/20 06:20:19;;;;;;;;;21.50;21.00;;;;;14.77;71.17;99518.91;6280651;20;2835745;-54
2023/04/20 06:22:48;;;;;;;;;23.50;22.50;;;;;14.76;71.07;99523.47;6282060;20;2842999;-51
2023/04/20 06:25:17;;;;;;;;;26.67;25.67;;;;;15.12;70.70;99519.56;6280525;20;3595080;-54
2023/04/20 06:27:46;;;;;;;;;22.50;21.00;;;;;14.73;70.49;99522.84;6278821;20;2843169;-50
2023/04/20 06:30:16;;;;;;;;;22.50;20.50;;;;;15.35;67.43;99520.34;6280363;20;2494081;-54
2023/04/20 06:32:45;;;;;;;;;23.50;21.00;;;;;15.86;65.79;99523.34;6281912;20;2846136;-51
2023/04/20 06:35:14;;;;;;;;;25.50;25.50;;;;;19.83;52.10;99537.56;6281378;20;2842999;-52
2023/04/20 06:37:43;;;;;;;;;22.67;21.67;;;;;18.54;53.66;99534.06;6286316;20;3583623;-56
2023/04/20 06:40:11;;;;;;;;;19.00;19.00;;;;;22.65;43.42;99543.53;6280735;20;2830515;-51
2023/04/20 06:42:44;;;;;;;;;20.00;20.00;;;;;24.60;36.57;99550.66;6284584;20;3587847;-55
2023/04/20 06:45:12;;;;;;;;;21.67;18.33;;;;;24.57;37.38;99540.03;6285565;20;3576336;-55
2023/04/20 06:47:41;;;;;;;;;14.67;13.00;;;;;24.45;36.56;99550.63;6280867;20;2791994;-52
2023/04/20 06:50:10;;;;;;;;;19.00;18.00;;;;;23.63;36.00;99548.53;6318814;20;3547146;-54
2023/04/20 06:52:40;;;;;;;;;20.67;19.00;;;;;25.44;34.58;99553.03;6316211;20;3567367;-51
2023/04/20 06:55:09;;;;;;;;;23.67;18.67;;;;;26.02;33.00;99556.63;6285654;20;3587800;-50
2023/04/20 06:57:38;;;;;;;;;22.67;21.67;;;;;23.97;36.22;99544.53;6282341;20;3575376;-53
2023/04/20 07:00:10;;;;;;;;;26.67;23.67;;;;;23.71;37.47;99542.97;6283593;20;3589886;-54
2023/04/20 07:02:48;;;;;;;;;14.50;14.50;;;;;26.25;32.83;99559.13;6279996;20;2806538;-53
2023/04/20 07:05:18;;;;;;;;;22.50;19.50;;;;;25.32;33.06;99552.69;6279654;20;2843044;-51
2023/04/20 07:07:46;;;;;;;;;19.67;19.00;;;;;25.77;33.09;99564.38;6284432;20;3561862;-49
2023/04/20 07:10:16;;;;;;;;;18.00;18.00;;;;;24.12;35.01;99558.28;6281551;20;3558715;-52
2023/04/20 07:12:45;;;;;;;;;20.33;17.67;;;;;23.29;36.67;99552.50;6285527;20;3567982;-55
2023/04/20 07:15:14;;;;;;;;;19.00;18.00;;;;;24.03;34.80;99563.84;6281365;20;3573174;-52
2023/04/20 07:17:42;;;;;;;;;16.00;16.00;;;;;24.74;33.52;99574.50;6283561;20;3569020;-56
2023/04/20 07:20:11;;;;;;;;;18.50;18.50;;;;;25.56;33.33;99576.22;6311110;20;2830552;-53
2023/04/20 07:22:40;;;;;;;;;20.33;17.67;;;;;24.95;32.61;99576.47;6283110;20;3564937;-55
2023/04/20 07:25:09;;;;;;;;;18.50;18.00;;;;;25.31;32.52;99570.22;6280126;20;2723314;-53
2023/04/20 07:27:40;;;;;;;;;18.00;16.67;;;;;24.13;34.11;99560.00;6310956;20;3569163;-52
2023/04/20 07:30:10;;;;;;;;;18.33;18.00;;;;;24.49;33.90;99571.19;6283336;20;3566955;-53
2023/04/20 07:32:40;;;;;;;;;14.00;14.00;;;;;21.29;37.84;99560.38;6277971;20;2810722;-51
2023/04/20 07:35:09;;;;;;;;;15.00;12.50;;;;;18.51;44.60;99550.69;6280224;20;2500308;-54
2023/04/20 07:37:38;;;;;;;;;19.50;16.50;;;;;18.01;47.22;99553.66;6281965;20;2828441;-52
2023/04/20 07:40:09;;;;;;;;;16.00;16.00;;;;;18.12;46.62;99555.38;6285617;20;2837838;-51
2023/04/20 07:42:38;;;;;;;;;16.00;16.00;;;;;18.01;46.67;99558.22;6284329;20;2824293;-52
2023/04/20 07:45:09;;;;;;;;;19.50;17.00;;;;;18.37;45.88;99559.28;6287392;20;2837849;-53
2023/04/20 07:47:39;;;;;;;;;21.00;21.00;;;;;18.71;45.50;99566.91;6285759;20;2836895;-51
2023/04/20 07:50:08;;;;;;;;;21.00;18.33;;;;;19.08;45.53;99569.63;6289516;20;3560731;-54
2023/04/20 07:52:37;;;;;;;;;11.67;11.67;;;;;17.95;47.00;99565.09;6285488;20;2793012;-53
2023/04/20 07:55:07;;;;;;;;;16.00;16.00;;;;;17.93;47.26;99561.66;6319411;20;3555595;-53
2023/04/20 07:57:35;;;;;;;;;12.67;10.67;;;;;17.86;45.36;99568.69;6316164;20;3513804;-53
2023/04/20 08:00:06;;;;;;;;;17.33;17.33;;;;;18.72;45.54;99566.78;6318990;20;3563808;-53
2023/04/20 08:02:35;;;;;;;;;18.67;16.00;;;;;18.72;44.53;99569.50;6317025;20;3562770;-55
2023/04/20 08:05:05;;;;;;;;;16.67;15.67;;;;;18.12;45.83;99567.09;6285906;20;3556536;-53
2023/04/20 08:07:34;;;;;;;;;16.33;16.33;;;;;18.43;45.21;99569.56;6318457;20;3569119;-55
2023/04/20 08:10:06;;;;;;;;;17.50;16.00;;;;;18.94;43.80;99560.09;6283586;20;2828447;-56
2023/04/20 08:12:34;;;;;;;;;16.00;16.00;;;;;18.82;44.08;99569.47;6283216;20;2492055;-54
2023/04/20 08:15:05;;;;;;;;;17.00;15.00;;;;;18.46;44.73;99563.84;6285815;20;2813869;-53
2023/04/20 08:17:34;;;;;;;;;19.33;17.67;;;;;18.59;44.48;99564.38;6285103;20;3562812;-54
2023/04/20 08:20:04;;;;;;;;;16.00;16.00;;;;;19.07;42.95;99562.47;6285274;20;2823207;-54
2023/04/20 08:22:33;;;;;;;;;19.00;19.00;;;;;19.23;43.50;99559.94;6285155;20;2823210;-56
2023/04/20 08:25:02;;;;;;;;;12.67;11.33;;;;;18.12;44.86;99564.38;6289654;20;2788929;-54
2023/04/20 08:27:34;;;;;;;;;17.00;15.00;;;;;18.28;45.22;99560.19;6317099;20;2815906;-51
2023/04/20 08:30:03;;;;;;;;;17.00;16.00;;;;;18.42;44.77;99562.44;6284096;20;2827401;-55
2023/04/20 08:32:32;;;;;;;;;16.67;16.00;;;;;18.54;46.07;99555.81;6284793;20;3569091;-52
2023/04/20 08:35:00;;;;;;;;;16.00;14.00;;;;;18.64;44.20;99555.75;6314957;20;2487767;-55
2023/04/20 08:37:28;;;;;;;;;15.00;14.00;;;;;18.65;44.35;99558.34;6285567;20;2491992;-56
2023/04/20 08:39:59;;;;;;;;;13.00;13.00;;;;;18.40;44.19;99554.44;6284046;20;2496101;-53
2023/04/20 08:42:27;;;;;;;;;16.00;15.00;;;;;18.78;43.20;99551.75;6283966;20;2500316;-54
2023/04/20 08:44:57;;;;;;;;;16.50;16.50;;;;;18.98;43.48;99560.66;6283595;20;2826388;-55
2023/04/20 08:47:28;;;;;;;;;15.50;15.50;;;;;18.76;44.01;99556.47;6285543;20;2815953;-54
2023/04/20 08:49:59;;;;;;;;;22.00;19.00;;;;;19.29;44.59;99545.69;6281400;20;2839931;-54
2023/04/20 08:52:27;;;;;;;;;14.50;14.50;;;;;19.71;42.28;99556.00;6282939;20;2496136;-54
2023/04/20 08:54:56;;;;;;;;;14.00;14.00;;;;;19.47;41.88;99553.03;6283874;20;3526717;-54
2023/04/20 08:57:25;;;;;;;;;10.00;7.50;;;;;19.52;40.07;99554.28;6285457;20;2763909;-53
2023/04/20 08:59:55;;;;;;;;;14.00;14.00;;;;;19.11;41.41;99549.41;6285657;20;3521115;-54
2023/04/20 09:02:24;;;;;;;;;14.33;12.67;;;;;18.90;41.72;99550.50;6281337;20;3537766;-53
2023/04/20 09:05:06;;;;;;;;;17.00;16.00;;;;;18.78;42.28;99547.16;6282174;20;3556533;-54
2023/04/20 09:07:35;;;;;;;;;13.67;12.00;;;;;19.39;41.21;99545.63;6283634;20;3521097;-51
2023/04/20 09:10:04;;;;;;;;;11.00;11.00;;;;;19.65;40.55;99542.16;6313124;20;3523194;-53
2023/04/20 09:12:42;;;;;;;;;13.50;11.00;;;;;19.16;40.59;99547.94;6318678;20;2792043;-52
2023/04/20 09:15:23;;;;;;;;;17.00;15.67;;;;;18.89;42.49;99547.97;6283011;20;3557521;-52
2023/04/20 09:17:52;;;;;;;;;13.67;13.67;;;;;19.45;42.64;99550.44;6287697;20;2802392;-51
2023/04/20 09:20:34;;;;;;;;;6.60;5.60;;;;;19.16;41.94;99549.81;6340514;20;2750248;-53
2023/04/20 09:23:17;;;;;;;;;14.33;12.00;;;;;18.84;41.49;99546.53;6316552;20;3498194;-53
2023/04/20 09:25:52;;;;;;;;;9.67;9.00;;;;;18.19;44.14;99541.03;6312819;20;3482615;-52
2023/04/20 09:28:20;;;;;;;;;8.50;6.50;;;;;18.40;44.34;99545.41;6320556;20;2745135;-55
2023/04/20 09:30:50;;;;;;;;;13.00;12.00;;;;;19.05;42.70;99542.72;6283775;20;3529449;-54
2023/04/20 09:33:19;;;;;;;;;10.00;10.00;;;;;19.00;42.63;99534.16;6282954;20;3508643;-53
2023/04/20 09:35:47;;;;;;;;;15.67;13.67;;;;;19.52;43.49;99540.66;6312631;20;3532609;-52
2023/04/20 09:38:24;;;;;;;;;16.50;10.00;;;;;19.50;42.44;99545.41;6315828;20;2809629;-55
2023/04/20 09:40:52;;;;;;;;;16.50;15.50;;;;;18.69;43.22;99545.28;6281421;20;2489898;-56
2023/04/20 09:43:24;;;;;;;;;14.50;14.00;;;;;19.21;43.43;99545.59;6281281;20;2489867;-51
2023/04/20 09:45:57;;;;;;;;;12.00;9.40;;;;;19.73;43.10;99536.81;6307827;20;2779447;-55
2023/04/20 09:48:25;;;;;;;;;13.00;13.00;;;;;20.04;42.92;99525.47;6286560;20;2797183;-53
2023/04/20 09:50:55;;;;;;;;;11.33;9.00;;;;;19.40;42.41;99531.00;6283383;20;2776451;-54
2023/04/20 09:53:25;;;;;;;;;16.50;15.50;;;;;19.62;42.61;99529.69;6311673;20;2814980;-53
2023/04/20 09:55:54;;;;;;;;;11.67;11.67;;;;;20.08;43.81;99530.41;6277489;20;3541933;-50
2023/04/20 09:58:23;;;;;;;;;11.00;11.00;;;;;19.82;43.09;99530.38;6279351;20;2791198;-55
2023/04/20 10:00:51;;;;;;;;;13.00;12.00;;;;;20.07;41.40;99530.59;6311649;20;2491979;-52
2023/04/20 10:03:20;;;;;;;;;7.50;6.00;;;;;19.23;40.91;99529.97;6285367;20;2747214;-54
2023/04/20 10:05:49;;;;;;;;;11.67;11.67;;;;;19.47;42.42;99525.81;6285308;20;2797203;-55
2023/04/20 10:08:23;;;;;;;;;14.67;13.67;;;;;20.42;42.20;99526.06;6311476;20;3534673;-51
2023/04/20 10:10:51;;;;;;;;;14.00;12.33;;;;;20.49;41.35;99532.56;6281821;20;3527317;-58
2023/04/20 10:13:22;;;;;;;;;9.00;9.00;;;;;19.45;42.61;99519.66;6312171;20;3468182;-56
2023/04/20 10:15:49;;;;;;;;;9.50;8.50;;;;;19.79;42.65;99528.00;6318131;20;2750317;-55
2023/04/20 10:18:23;;;;;;;;;15.00;15.00;;;;;20.48;41.84;99515.31;6285855;20;2801307;-54
2023/04/20 10:21:08;;;;;;;;;9.00;8.00;;;;;19.61;40.69;99508.03;6314884;20;2737784;-54
2023/04/20 10:23:49;;;;;;;;;14.33;13.00;;;;;19.99;41.82;99503.28;6283676;20;3531534;-49
2023/04/20 10:26:18;;;;;;;;;12.67;12.67;;;;;20.48;41.70;99507.16;6279853;20;2810736;-53
2023/04/20 10:28:46;;;;;;;;;12.00;12.00;;;;;20.53;40.86;99509.41;6312740;20;2789848;-53
2023/04/20 10:31:15;;;;;;;;;14.00;14.00;;;;;20.68;40.03;99509.69;6316767;20;2795078;-56
2023/04/20 10:33:54;;;;;;;;;13.00;11.67;;;;;20.77;39.89;99498.66;6312217;20;3512843;-55
2023/04/20 10:36:35;;;;;;;;;12.67;11.67;;;;;19.89;40.58;99506.09;6313096;20;3513812;-52
2023/04/20 10:39:21;;;;;;;;;10.33;10.33;;;;;19.27;41.55;99501.47;6312940;20;3516026;-50
2023/04/20 10:41:57;;;;;;;;;11.33;10.00;;;;;20.93;39.21;99499.69;6313276;20;3510803;-54
2023/04/20 10:44:27;;;;;;;;;10.40;9.20;;;;;21.13;37.60;99497.56;6339753;20;2785700;-51
2023/04/20 10:46:55;;;;;;;;;9.50;9.00;;;;;20.40;40.14;99490.75;6289556;20;2756533;-55
2023/04/20 10:49:30;;;;;;;;;12.00;10.00;;;;;19.21;41.27;99488.44;6284054;20;2783625;-54
2023/04/20 10:51:59;;;;;;;;;9.00;9.00;;;;;19.04;41.99;99487.44;6312556;20;3470106;-56
2023/04/20 10:54:38;;;;;;;;;8.80;7.20;;;;;18.77;41.86;99491.03;6336935;20;2753539;-55
2023/04/20 10:57:07;;;;;;;;;11.67;11.67;;;;;19.15;41.25;99478.19;6311834;20;2788830;-54
2023/04/20 10:59:37;;;;;;;;;11.00;11.00;;;;;19.13;42.35;99479.34;6313606;20;3517310;-53
2023/04/20 11:02:11;;;;;;;;;8.00;8.00;;;;;19.04;42.18;99471.09;6314825;20;2731595;-54
2023/04/20 11:04:39;;;;;;;;;8.00;8.00;;;;;20.10;41.29;99473.88;6283527;20;2748318;-51
2023/04/20 11:07:12;;;;;;;;;9.00;7.00;;;;;20.10;40.77;99475.75;6290734;20;2631563;-54
2023/04/20 11:09:42;;;;;;;;;8.00;8.00;;;;;18.70;42.43;99473.59;6292670;20;2751396;-52
2023/04/20 11:12:13;;;;;;;;;8.40;7.00;;;;;20.19;39.90;99477.50;6306556;20;2736801;-52
2023/04/20 11:15:01;;;;;;;;;10.33;9.67;;;;;20.49;38.52;99476.16;6314723;20;2786820;-54